sensor_id;sensor_type;location;lat;lon;timestamp;P1;durP1;ratioP1;P2;durP2;ratioP2
41946;SDS011;27638;42.184;24.848;2022-10-18T00:01:41;22.58;;;10.80;;
41946;SDS011;27638;42.184;24.848;2022-10-18T00:04:06;19.60;;;10.82;;
41946;SDS011;27638;42.184;24.848;2022-10-18T00:06:32;20.02;;;11.18;;
41946;SDS011;27638;42.184;24.848;2022-10-18T00:08:57;22.20;;;11.50;;
41946;SDS011;27638;42.184;24.848;2022-10-18T00:11:23;22.33;;;11.15;;
41946;SDS011;27638;42.184;24.848;2022-10-18T00:13:48;29.75;;;12.43;;
41946;SDS011;27638;42.184;24.848;2022-10-18T00:16:14;25.75;;;11.27;;
41946;SDS011;27638;42.184;24.848;2022-10-18T00:18:41;22.95;;;11.80;;
41946;SDS011;27638;42.184;24.848;2022-10-18T00:21:10;23.52;;;11.68;;
41946;SDS011;27638;42.184;24.848;2022-10-18T00:23:37;21.80;;;10.30;;
41946;SDS011;27638;42.184;24.848;2022-10-18T00:26:07;21.13;;;10.57;;
41946;SDS011;27638;42.184;24.848;2022-10-18T00:28:40;20.95;;;10.57;;
41946;SDS011;27638;42.184;24.848;2022-10-18T00:31:13;18.63;;;10.48;;
41946;SDS011;27638;42.184;24.848;2022-10-18T00:33:42;23.55;;;10.18;;
41946;SDS011;27638;42.184;24.848;2022-10-18T00:36:09;24.45;;;10.80;;
41946;SDS011;27638;42.184;24.848;2022-10-18T00:38:35;25.67;;;10.98;;
41946;SDS011;27638;42.184;24.848;2022-10-18T00:41:01;23.88;;;10.93;;
41946;SDS011;27638;42.184;24.848;2022-10-18T00:43:28;25.73;;;10.23;;
41946;SDS011;27638;42.184;24.848;2022-10-18T00:45:53;21.10;;;10.20;;
41946;SDS011;27638;42.184;24.848;2022-10-18T00:48:19;23.00;;;10.77;;
41946;SDS011;27638;42.184;24.848;2022-10-18T00:50:45;19.58;;;9.95;;
41946;SDS011;27638;42.184;24.848;2022-10-18T00:53:15;19.83;;;9.75;;
41946;SDS011;27638;42.184;24.848;2022-10-18T00:55:42;14.07;;;9.27;;
41946;SDS011;27638;42.184;24.848;2022-10-18T00:58:08;17.15;;;9.38;;
41946;SDS011;27638;42.184;24.848;2022-10-18T01:00:37;21.25;;;10.00;;
41946;SDS011;27638;42.184;24.848;2022-10-18T01:03:05;20.70;;;10.13;;
41946;SDS011;27638;42.184;24.848;2022-10-18T01:05:31;19.30;;;10.55;;
41946;SDS011;27638;42.184;24.848;2022-10-18T01:10:56;24.25;;;10.13;;
41946;SDS011;27638;42.184;24.848;2022-10-18T01:13:37;21.85;;;9.70;;
41946;SDS011;27638;42.184;24.848;2022-10-18T01:19:17;24.45;;;9.73;;
41946;SDS011;27638;42.184;24.848;2022-10-18T01:22:12;20.10;;;9.90;;
41946;SDS011;27638;42.184;24.848;2022-10-18T01:27:34;20.67;;;9.93;;
41946;SDS011;27638;42.184;24.848;2022-10-18T01:36:25;25.27;;;11.45;;
41946;SDS011;27638;42.184;24.848;2022-10-18T01:38:44;24.08;;;10.57;;
41946;SDS011;27638;42.184;24.848;2022-10-18T01:41:12;20.30;;;11.10;;
41946;SDS011;27638;42.184;24.848;2022-10-18T01:43:40;24.30;;;10.52;;
41946;SDS011;27638;42.184;24.848;2022-10-18T01:46:07;21.42;;;10.40;;
41946;SDS011;27638;42.184;24.848;2022-10-18T01:48:35;23.48;;;10.35;;
41946;SDS011;27638;42.184;24.848;2022-10-18T01:51:04;25.83;;;10.52;;
41946;SDS011;27638;42.184;24.848;2022-10-18T01:53:31;23.45;;;11.20;;
41946;SDS011;27638;42.184;24.848;2022-10-18T01:58:40;19.58;;;10.48;;
41946;SDS011;27638;42.184;24.848;2022-10-18T02:01:20;20.80;;;10.57;;
41946;SDS011;27638;42.184;24.848;2022-10-18T02:03:51;21.43;;;10.73;;
41946;SDS011;27638;42.184;24.848;2022-10-18T02:06:22;21.98;;;10.38;;
41946;SDS011;27638;42.184;24.848;2022-10-18T02:09:02;19.02;;;9.40;;
41946;SDS011;27638;42.184;24.848;2022-10-18T02:11:33;22.75;;;10.05;;
41946;SDS011;27638;42.184;24.848;2022-10-18T02:14:03;16.15;;;8.90;;
41946;SDS011;27638;42.184;24.848;2022-10-18T02:16:40;17.35;;;9.52;;
41946;SDS011;27638;42.184;24.848;2022-10-18T02:21:52;18.42;;;9.90;;
41946;SDS011;27638;42.184;24.848;2022-10-18T02:24:20;20.35;;;10.05;;
41946;SDS011;27638;42.184;24.848;2022-10-18T02:26:50;28.23;;;10.63;;
41946;SDS011;27638;42.184;24.848;2022-10-18T02:29:16;18.92;;;9.63;;
41946;SDS011;27638;42.184;24.848;2022-10-18T02:31:45;27.83;;;9.93;;
41946;SDS011;27638;42.184;24.848;2022-10-18T02:34:47;18.02;;;9.90;;
41946;SDS011;27638;42.184;24.848;2022-10-18T02:37:07;21.02;;;10.02;;
41946;SDS011;27638;42.184;24.848;2022-10-18T02:39:34;19.75;;;9.80;;
41946;SDS011;27638;42.184;24.848;2022-10-18T02:42:01;21.60;;;9.77;;
41946;SDS011;27638;42.184;24.848;2022-10-18T02:44:35;18.13;;;9.60;;
41946;SDS011;27638;42.184;24.848;2022-10-18T02:47:02;21.65;;;10.25;;
41946;SDS011;27638;42.184;24.848;2022-10-18T02:49:29;16.58;;;9.70;;
41946;SDS011;27638;42.184;24.848;2022-10-18T02:51:55;28.10;;;10.77;;
41946;SDS011;27638;42.184;24.848;2022-10-18T02:54:21;21.67;;;10.43;;
41946;SDS011;27638;42.184;24.848;2022-10-18T02:56:46;23.55;;;10.30;;
41946;SDS011;27638;42.184;24.848;2022-10-18T02:59:12;21.27;;;9.45;;
41946;SDS011;27638;42.184;24.848;2022-10-18T03:01:37;23.77;;;9.82;;
41946;SDS011;27638;42.184;24.848;2022-10-18T03:04:03;24.23;;;10.68;;
41946;SDS011;27638;42.184;24.848;2022-10-18T03:06:29;21.38;;;9.32;;
41946;SDS011;27638;42.184;24.848;2022-10-18T03:08:55;16.35;;;9.40;;
41946;SDS011;27638;42.184;24.848;2022-10-18T03:11:21;17.25;;;9.07;;
41946;SDS011;27638;42.184;24.848;2022-10-18T03:13:46;21.15;;;10.25;;
41946;SDS011;27638;42.184;24.848;2022-10-18T03:16:14;24.13;;;9.45;;
41946;SDS011;27638;42.184;24.848;2022-10-18T03:18:40;18.88;;;10.13;;
41946;SDS011;27638;42.184;24.848;2022-10-18T03:21:05;20.70;;;10.02;;
41946;SDS011;27638;42.184;24.848;2022-10-18T03:23:31;23.08;;;10.27;;
41946;SDS011;27638;42.184;24.848;2022-10-18T03:25:57;27.45;;;10.13;;
41946;SDS011;27638;42.184;24.848;2022-10-18T03:28:23;20.77;;;10.35;;
41946;SDS011;27638;42.184;24.848;2022-10-18T03:30:48;23.83;;;10.07;;
41946;SDS011;27638;42.184;24.848;2022-10-18T03:33:14;20.17;;;10.43;;
41946;SDS011;27638;42.184;24.848;2022-10-18T03:35:39;18.58;;;9.88;;
41946;SDS011;27638;42.184;24.848;2022-10-18T03:38:05;19.25;;;10.20;;
41946;SDS011;27638;42.184;24.848;2022-10-18T03:40:30;20.70;;;10.00;;
41946;SDS011;27638;42.184;24.848;2022-10-18T03:42:56;20.67;;;10.05;;
41946;SDS011;27638;42.184;24.848;2022-10-18T03:45:21;19.83;;;10.60;;
41946;SDS011;27638;42.184;24.848;2022-10-18T03:47:47;18.98;;;10.18;;
41946;SDS011;27638;42.184;24.848;2022-10-18T03:50:12;17.85;;;10.20;;
41946;SDS011;27638;42.184;24.848;2022-10-18T03:52:37;24.13;;;10.45;;
41946;SDS011;27638;42.184;24.848;2022-10-18T03:55:03;22.17;;;11.18;;
41946;SDS011;27638;42.184;24.848;2022-10-18T03:57:29;20.98;;;10.43;;
41946;SDS011;27638;42.184;24.848;2022-10-18T03:59:54;15.90;;;10.20;;
41946;SDS011;27638;42.184;24.848;2022-10-18T04:02:20;25.85;;;10.07;;
41946;SDS011;27638;42.184;24.848;2022-10-18T04:04:45;21.67;;;10.30;;
41946;SDS011;27638;42.184;24.848;2022-10-18T04:07:11;18.67;;;10.05;;
41946;SDS011;27638;42.184;24.848;2022-10-18T04:09:36;22.20;;;10.07;;
41946;SDS011;27638;42.184;24.848;2022-10-18T04:12:01;25.77;;;12.38;;
41946;SDS011;27638;42.184;24.848;2022-10-18T04:14:27;31.40;;;13.88;;
41946;SDS011;27638;42.184;24.848;2022-10-18T04:16:52;23.75;;;10.18;;
41946;SDS011;27638;42.184;24.848;2022-10-18T04:19:18;21.05;;;9.88;;
41946;SDS011;27638;42.184;24.848;2022-10-18T04:21:43;19.88;;;9.07;;
41946;SDS011;27638;42.184;24.848;2022-10-18T04:24:09;20.55;;;9.52;;
41946;SDS011;27638;42.184;24.848;2022-10-18T04:26:34;25.70;;;8.30;;
41946;SDS011;27638;42.184;24.848;2022-10-18T04:28:59;20.67;;;9.07;;
41946;SDS011;27638;42.184;24.848;2022-10-18T04:31:25;24.83;;;9.60;;
41946;SDS011;27638;42.184;24.848;2022-10-18T04:33:50;26.40;;;10.95;;
41946;SDS011;27638;42.184;24.848;2022-10-18T04:36:16;22.50;;;10.32;;
41946;SDS011;27638;42.184;24.848;2022-10-18T04:38:41;41.25;;;27.30;;
41946;SDS011;27638;42.184;24.848;2022-10-18T04:41:06;31.38;;;15.75;;
41946;SDS011;27638;42.184;24.848;2022-10-18T04:43:32;27.00;;;9.68;;
41946;SDS011;27638;42.184;24.848;2022-10-18T04:45:57;20.92;;;8.35;;
41946;SDS011;27638;42.184;24.848;2022-10-18T04:48:23;17.73;;;8.55;;
41946;SDS011;27638;42.184;24.848;2022-10-18T04:50:48;21.58;;;8.80;;
41946;SDS011;27638;42.184;24.848;2022-10-18T04:53:15;26.65;;;8.75;;
41946;SDS011;27638;42.184;24.848;2022-10-18T04:55:47;23.30;;;8.80;;
41946;SDS011;27638;42.184;24.848;2022-10-18T04:58:13;24.13;;;9.70;;
41946;SDS011;27638;42.184;24.848;2022-10-18T05:00:40;30.30;;;9.80;;
41946;SDS011;27638;42.184;24.848;2022-10-18T05:03:06;26.30;;;10.18;;
41946;SDS011;27638;42.184;24.848;2022-10-18T05:05:32;18.35;;;9.02;;
41946;SDS011;27638;42.184;24.848;2022-10-18T05:07:57;19.35;;;10.27;;
41946;SDS011;27638;42.184;24.848;2022-10-18T05:10:22;22.17;;;9.93;;
41946;SDS011;27638;42.184;24.848;2022-10-18T05:12:48;22.02;;;9.85;;
41946;SDS011;27638;42.184;24.848;2022-10-18T05:15:13;23.50;;;9.88;;
41946;SDS011;27638;42.184;24.848;2022-10-18T05:17:39;31.20;;;11.10;;
41946;SDS011;27638;42.184;24.848;2022-10-18T05:20:04;26.77;;;12.23;;
41946;SDS011;27638;42.184;24.848;2022-10-18T05:22:30;30.73;;;13.07;;
41946;SDS011;27638;42.184;24.848;2022-10-18T05:24:56;29.38;;;12.60;;
41946;SDS011;27638;42.184;24.848;2022-10-18T05:27:21;27.92;;;13.23;;
41946;SDS011;27638;42.184;24.848;2022-10-18T05:29:46;31.92;;;12.90;;
41946;SDS011;27638;42.184;24.848;2022-10-18T05:32:12;26.15;;;11.07;;
41946;SDS011;27638;42.184;24.848;2022-10-18T05:34:37;20.80;;;12.02;;
41946;SDS011;27638;42.184;24.848;2022-10-18T05:37:03;31.25;;;12.93;;
41946;SDS011;27638;42.184;24.848;2022-10-18T05:39:28;30.42;;;12.90;;
41946;SDS011;27638;42.184;24.848;2022-10-18T05:41:54;34.05;;;15.10;;
41946;SDS011;27638;42.184;24.848;2022-10-18T05:44:19;23.33;;;12.23;;
41946;SDS011;27638;42.184;24.848;2022-10-18T05:46:45;23.17;;;10.73;;
41946;SDS011;27638;42.184;24.848;2022-10-18T05:49:11;20.75;;;9.80;;
41946;SDS011;27638;42.184;24.848;2022-10-18T05:51:37;20.63;;;10.27;;
41946;SDS011;27638;42.184;24.848;2022-10-18T05:54:03;19.92;;;10.52;;
41946;SDS011;27638;42.184;24.848;2022-10-18T05:56:28;24.63;;;10.90;;
41946;SDS011;27638;42.184;24.848;2022-10-18T05:58:54;24.75;;;9.57;;
41946;SDS011;27638;42.184;24.848;2022-10-18T06:01:19;18.63;;;11.93;;
41946;SDS011;27638;42.184;24.848;2022-10-18T06:03:45;24.38;;;11.15;;
41946;SDS011;27638;42.184;24.848;2022-10-18T06:06:12;22.50;;;10.32;;
41946;SDS011;27638;42.184;24.848;2022-10-18T06:08:38;24.98;;;10.70;;
41946;SDS011;27638;42.184;24.848;2022-10-18T06:11:06;24.60;;;9.95;;
41946;SDS011;27638;42.184;24.848;2022-10-18T06:13:43;22.73;;;10.40;;
41946;SDS011;27638;42.184;24.848;2022-10-18T06:16:10;20.85;;;9.38;;
41946;SDS011;27638;42.184;24.848;2022-10-18T06:18:37;24.83;;;9.98;;
41946;SDS011;27638;42.184;24.848;2022-10-18T06:21:03;17.08;;;8.77;;
41946;SDS011;27638;42.184;24.848;2022-10-18T06:23:29;20.63;;;8.65;;
41946;SDS011;27638;42.184;24.848;2022-10-18T06:25:58;23.25;;;10.25;;
41946;SDS011;27638;42.184;24.848;2022-10-18T06:28:24;27.35;;;9.77;;
41946;SDS011;27638;42.184;24.848;2022-10-18T06:30:50;22.35;;;8.32;;
41946;SDS011;27638;42.184;24.848;2022-10-18T06:33:15;15.20;;;9.65;;
41946;SDS011;27638;42.184;24.848;2022-10-18T06:35:41;18.63;;;8.20;;
41946;SDS011;27638;42.184;24.848;2022-10-18T06:38:06;14.82;;;8.10;;
41946;SDS011;27638;42.184;24.848;2022-10-18T06:40:32;17.90;;;8.20;;
41946;SDS011;27638;42.184;24.848;2022-10-18T06:43:05;23.45;;;10.73;;
41946;SDS011;27638;42.184;24.848;2022-10-18T06:48:21;14.50;;;7.72;;
41946;SDS011;27638;42.184;24.848;2022-10-18T06:50:54;21.33;;;8.50;;
41946;SDS011;27638;42.184;24.848;2022-10-18T06:53:23;12.55;;;7.60;;
41946;SDS011;27638;42.184;24.848;2022-10-18T06:55:50;14.20;;;8.40;;
41946;SDS011;27638;42.184;24.848;2022-10-18T06:58:16;22.30;;;8.20;;
41946;SDS011;27638;42.184;24.848;2022-10-18T07:00:41;14.60;;;7.82;;
41946;SDS011;27638;42.184;24.848;2022-10-18T07:03:08;24.65;;;8.60;;
41946;SDS011;27638;42.184;24.848;2022-10-18T07:05:33;17.30;;;8.32;;
41946;SDS011;27638;42.184;24.848;2022-10-18T07:07:58;22.58;;;9.82;;
41946;SDS011;27638;42.184;24.848;2022-10-18T07:10:24;24.00;;;8.80;;
41946;SDS011;27638;42.184;24.848;2022-10-18T07:12:50;17.33;;;8.88;;
41946;SDS011;27638;42.184;24.848;2022-10-18T07:15:15;17.13;;;7.88;;
41946;SDS011;27638;42.184;24.848;2022-10-18T07:17:42;16.58;;;7.65;;
41946;SDS011;27638;42.184;24.848;2022-10-18T07:20:11;14.32;;;8.38;;
41946;SDS011;27638;42.184;24.848;2022-10-18T07:22:36;14.77;;;6.85;;
41946;SDS011;27638;42.184;24.848;2022-10-18T07:25:03;15.68;;;8.15;;
41946;SDS011;27638;42.184;24.848;2022-10-18T07:27:29;14.50;;;6.43;;
41946;SDS011;27638;42.184;24.848;2022-10-18T07:29:55;15.02;;;7.40;;
41946;SDS011;27638;42.184;24.848;2022-10-18T07:32:20;14.57;;;7.57;;
41946;SDS011;27638;42.184;24.848;2022-10-18T07:34:46;15.20;;;7.10;;
41946;SDS011;27638;42.184;24.848;2022-10-18T07:37:11;13.90;;;8.60;;
41946;SDS011;27638;42.184;24.848;2022-10-18T07:39:36;13.30;;;7.03;;
41946;SDS011;27638;42.184;24.848;2022-10-18T07:42:02;13.50;;;7.25;;
41946;SDS011;27638;42.184;24.848;2022-10-18T07:44:27;11.10;;;6.60;;
41946;SDS011;27638;42.184;24.848;2022-10-18T07:46:53;18.00;;;7.13;;
41946;SDS011;27638;42.184;24.848;2022-10-18T07:49:18;17.38;;;8.23;;
41946;SDS011;27638;42.184;24.848;2022-10-18T07:51:43;12.20;;;6.15;;
41946;SDS011;27638;42.184;24.848;2022-10-18T07:54:09;12.88;;;6.32;;
41946;SDS011;27638;42.184;24.848;2022-10-18T07:56:34;13.45;;;6.95;;
41946;SDS011;27638;42.184;24.848;2022-10-18T07:59:00;12.05;;;6.57;;
41946;SDS011;27638;42.184;24.848;2022-10-18T08:01:25;13.85;;;7.07;;
41946;SDS011;27638;42.184;24.848;2022-10-18T08:03:51;14.02;;;7.43;;
41946;SDS011;27638;42.184;24.848;2022-10-18T08:06:18;14.27;;;7.45;;
41946;SDS011;27638;42.184;24.848;2022-10-18T08:08:44;20.10;;;7.15;;
41946;SDS011;27638;42.184;24.848;2022-10-18T08:11:11;15.15;;;7.65;;
41946;SDS011;27638;42.184;24.848;2022-10-18T08:13:39;15.80;;;7.05;;
41946;SDS011;27638;42.184;24.848;2022-10-18T08:16:06;15.75;;;8.10;;
41946;SDS011;27638;42.184;24.848;2022-10-18T08:18:33;16.33;;;8.82;;
41946;SDS011;27638;42.184;24.848;2022-10-18T08:20:59;15.35;;;8.05;;
41946;SDS011;27638;42.184;24.848;2022-10-18T08:23:25;15.85;;;7.97;;
41946;SDS011;27638;42.184;24.848;2022-10-18T08:25:51;14.55;;;7.00;;
41946;SDS011;27638;42.184;24.848;2022-10-18T08:28:16;17.83;;;7.65;;
41946;SDS011;27638;42.184;24.848;2022-10-18T08:30:42;15.88;;;7.78;;
41946;SDS011;27638;42.184;24.848;2022-10-18T08:33:07;17.35;;;7.15;;
41946;SDS011;27638;42.184;24.848;2022-10-18T08:35:33;16.20;;;7.90;;
41946;SDS011;27638;42.184;24.848;2022-10-18T08:37:58;13.88;;;8.45;;
41946;SDS011;27638;42.184;24.848;2022-10-18T08:40:24;16.88;;;7.30;;
41946;SDS011;27638;42.184;24.848;2022-10-18T08:43:13;16.40;;;7.28;;
41946;SDS011;27638;42.184;24.848;2022-10-18T08:45:47;23.23;;;7.75;;
41946;SDS011;27638;42.184;24.848;2022-10-18T08:48:16;12.05;;;7.38;;
41946;SDS011;27638;42.184;24.848;2022-10-18T08:50:47;15.40;;;8.15;;
41946;SDS011;27638;42.184;24.848;2022-10-18T08:56:06;13.75;;;7.38;;
41946;SDS011;27638;42.184;24.848;2022-10-18T08:58:38;12.48;;;7.25;;
41946;SDS011;27638;42.184;24.848;2022-10-18T09:23:29;15.73;;;6.78;;
41946;SDS011;27638;42.184;24.848;2022-10-18T09:26:09;14.98;;;6.65;;
41946;SDS011;27638;42.184;24.848;2022-10-18T09:28:45;12.10;;;6.07;;
41946;SDS011;27638;42.184;24.848;2022-10-18T09:37:16;13.20;;;7.10;;
41946;SDS011;27638;42.184;24.848;2022-10-18T09:39:43;13.88;;;5.90;;
41946;SDS011;27638;42.184;24.848;2022-10-18T09:42:15;12.48;;;6.53;;
41946;SDS011;27638;42.184;24.848;2022-10-18T09:44:52;11.38;;;6.53;;
41946;SDS011;27638;42.184;24.848;2022-10-18T09:47:22;18.52;;;8.80;;
41946;SDS011;27638;42.184;24.848;2022-10-18T09:49:55;18.75;;;6.10;;
41946;SDS011;27638;42.184;24.848;2022-10-18T09:52:27;14.02;;;7.00;;
41946;SDS011;27638;42.184;24.848;2022-10-18T09:55:05;14.82;;;6.35;;
41946;SDS011;27638;42.184;24.848;2022-10-18T09:57:40;13.32;;;6.18;;
41946;SDS011;27638;42.184;24.848;2022-10-18T10:00:14;18.70;;;6.68;;
41946;SDS011;27638;42.184;24.848;2022-10-18T10:02:43;14.13;;;5.25;;
41946;SDS011;27638;42.184;24.848;2022-10-18T10:05:11;17.58;;;6.60;;
41946;SDS011;27638;42.184;24.848;2022-10-18T10:07:42;14.93;;;6.30;;
41946;SDS011;27638;42.184;24.848;2022-10-18T10:15:37;11.90;;;6.00;;
41946;SDS011;27638;42.184;24.848;2022-10-18T10:18:03;12.23;;;5.55;;
41946;SDS011;27638;42.184;24.848;2022-10-18T10:20:35;11.07;;;5.40;;
41946;SDS011;27638;42.184;24.848;2022-10-18T10:23:24;14.18;;;5.90;;
41946;SDS011;27638;42.184;24.848;2022-10-18T10:25:54;21.50;;;6.75;;
41946;SDS011;27638;42.184;24.848;2022-10-18T10:28:25;22.27;;;7.18;;
41946;SDS011;27638;42.184;24.848;2022-10-18T10:30:53;12.90;;;6.43;;
41946;SDS011;27638;42.184;24.848;2022-10-18T10:33:37;10.05;;;5.13;;
41946;SDS011;27638;42.184;24.848;2022-10-18T10:36:14;18.05;;;6.65;;
41946;SDS011;27638;42.184;24.848;2022-10-18T10:38:44;11.50;;;5.40;;
41946;SDS011;27638;42.184;24.848;2022-10-18T10:41:19;9.20;;;4.97;;
41946;SDS011;27638;42.184;24.848;2022-10-18T10:43:46;9.55;;;5.38;;
41946;SDS011;27638;42.184;24.848;2022-10-18T10:46:14;10.32;;;4.78;;
41946;SDS011;27638;42.184;24.848;2022-10-18T10:48:50;10.10;;;4.70;;
41946;SDS011;27638;42.184;24.848;2022-10-18T10:51:27;15.10;;;5.47;;
41946;SDS011;27638;42.184;24.848;2022-10-18T10:53:56;10.23;;;4.78;;
41946;SDS011;27638;42.184;24.848;2022-10-18T10:56:27;12.35;;;5.38;;
41946;SDS011;27638;42.184;24.848;2022-10-18T10:58:55;9.07;;;5.00;;
41946;SDS011;27638;42.184;24.848;2022-10-18T11:01:26;8.98;;;4.25;;
41946;SDS011;27638;42.184;24.848;2022-10-18T11:03:55;10.27;;;4.57;;
41946;SDS011;27638;42.184;24.848;2022-10-18T11:06:31;7.88;;;4.00;;
41946;SDS011;27638;42.184;24.848;2022-10-18T11:09:03;11.77;;;3.92;;
41946;SDS011;27638;42.184;24.848;2022-10-18T11:11:34;16.05;;;4.47;;
41946;SDS011;27638;42.184;24.848;2022-10-18T11:14:26;11.73;;;4.18;;
41946;SDS011;27638;42.184;24.848;2022-10-18T11:17:00;6.13;;;3.70;;
41946;SDS011;27638;42.184;24.848;2022-10-18T11:19:35;6.32;;;2.90;;
41946;SDS011;27638;42.184;24.848;2022-10-18T11:22:03;12.15;;;3.65;;
41946;SDS011;27638;42.184;24.848;2022-10-18T11:24:34;4.72;;;3.20;;
41946;SDS011;27638;42.184;24.848;2022-10-18T11:27:05;9.80;;;3.10;;
41946;SDS011;27638;42.184;24.848;2022-10-18T11:32:37;6.22;;;3.08;;
41946;SDS011;27638;42.184;24.848;2022-10-18T11:37:59;9.32;;;2.80;;
41946;SDS011;27638;42.184;24.848;2022-10-18T11:41:11;9.93;;;3.58;;
41946;SDS011;27638;42.184;24.848;2022-10-18T11:43:50;5.75;;;2.75;;
41946;SDS011;27638;42.184;24.848;2022-10-18T11:49:15;10.68;;;2.88;;
41946;SDS011;27638;42.184;24.848;2022-10-18T11:51:47;13.23;;;3.25;;
41946;SDS011;27638;42.184;24.848;2022-10-18T12:00:02;5.18;;;3.05;;
41946;SDS011;27638;42.184;24.848;2022-10-18T12:05:25;5.90;;;3.03;;
41946;SDS011;27638;42.184;24.848;2022-10-18T12:10:26;7.53;;;4.00;;
41946;SDS011;27638;42.184;24.848;2022-10-18T12:12:58;12.15;;;3.78;;
41946;SDS011;27638;42.184;24.848;2022-10-18T12:15:28;8.50;;;3.80;;
41946;SDS011;27638;42.184;24.848;2022-10-18T12:17:58;7.47;;;4.35;;
41946;SDS011;27638;42.184;24.848;2022-10-18T12:20:36;5.55;;;2.85;;
41946;SDS011;27638;42.184;24.848;2022-10-18T12:23:10;10.00;;;3.35;;
41946;SDS011;27638;42.184;24.848;2022-10-18T12:33:39;7.57;;;3.13;;
41946;SDS011;27638;42.184;24.848;2022-10-18T12:38:56;7.25;;;3.08;;
41946;SDS011;27638;42.184;24.848;2022-10-18T12:41:26;10.65;;;4.60;;
41946;SDS011;27638;42.184;24.848;2022-10-18T12:46:57;11.00;;;5.00;;
41946;SDS011;27638;42.184;24.848;2022-10-18T12:49:34;13.45;;;4.93;;
41946;SDS011;27638;42.184;24.848;2022-10-18T12:52:03;9.60;;;5.07;;
41946;SDS011;27638;42.184;24.848;2022-10-18T12:54:50;9.63;;;4.78;;
41946;SDS011;27638;42.184;24.848;2022-10-18T13:13:36;12.43;;;4.45;;
41946;SDS011;27638;42.184;24.848;2022-10-18T13:25:05;8.40;;;3.83;;
41946;SDS011;27638;42.184;24.848;2022-10-18T13:27:52;10.77;;;4.57;;
41946;SDS011;27638;42.184;24.848;2022-10-18T13:35:50;6.95;;;3.55;;
41946;SDS011;27638;42.184;24.848;2022-10-18T13:41:03;6.30;;;3.40;;
41946;SDS011;27638;42.184;24.848;2022-10-18T13:46:16;11.68;;;3.95;;
41946;SDS011;27638;42.184;24.848;2022-10-18T13:48:47;10.73;;;4.60;;
41946;SDS011;27638;42.184;24.848;2022-10-18T14:00:08;15.05;;;5.80;;
41946;SDS011;27638;42.184;24.848;2022-10-18T14:02:59;14.75;;;4.38;;
41946;SDS011;27638;42.184;24.848;2022-10-18T14:08:18;10.90;;;5.05;;
41946;SDS011;27638;42.184;24.848;2022-10-18T14:10:55;81.95;;;9.10;;
41946;SDS011;27638;42.184;24.848;2022-10-18T14:13:23;6.82;;;3.70;;
41946;SDS011;27638;42.184;24.848;2022-10-18T14:15:53;9.50;;;3.88;;
41946;SDS011;27638;42.184;24.848;2022-10-18T14:18:26;11.38;;;6.20;;
41946;SDS011;27638;42.184;24.848;2022-10-18T14:20:58;8.15;;;4.53;;
41946;SDS011;27638;42.184;24.848;2022-10-18T14:23:47;16.80;;;4.90;;
41946;SDS011;27638;42.184;24.848;2022-10-18T14:26:18;13.02;;;5.72;;
41946;SDS011;27638;42.184;24.848;2022-10-18T14:28:45;14.45;;;6.07;;
41946;SDS011;27638;42.184;24.848;2022-10-18T14:31:27;10.27;;;5.97;;
41946;SDS011;27638;42.184;24.848;2022-10-18T14:33:53;12.15;;;5.43;;
41946;SDS011;27638;42.184;24.848;2022-10-18T14:36:24;12.68;;;5.13;;
41946;SDS011;27638;42.184;24.848;2022-10-18T14:38:58;15.48;;;7.20;;
41946;SDS011;27638;42.184;24.848;2022-10-18T14:46:40;16.30;;;7.95;;
41946;SDS011;27638;42.184;24.848;2022-10-18T14:49:08;18.45;;;8.88;;
41946;SDS011;27638;42.184;24.848;2022-10-18T14:51:35;19.73;;;8.85;;
41946;SDS011;27638;42.184;24.848;2022-10-18T14:54:03;17.67;;;8.27;;
41946;SDS011;27638;42.184;24.848;2022-10-18T14:56:36;15.80;;;7.05;;
41946;SDS011;27638;42.184;24.848;2022-10-18T14:59:04;20.70;;;7.50;;
41946;SDS011;27638;42.184;24.848;2022-10-18T15:01:37;15.70;;;7.18;;
41946;SDS011;27638;42.184;24.848;2022-10-18T15:04:07;11.43;;;6.90;;
41946;SDS011;27638;42.184;24.848;2022-10-18T15:06:35;21.52;;;7.85;;
41946;SDS011;27638;42.184;24.848;2022-10-18T15:09:07;27.88;;;8.15;;
41946;SDS011;27638;42.184;24.848;2022-10-18T15:11:35;13.88;;;6.90;;
41946;SDS011;27638;42.184;24.848;2022-10-18T15:14:02;19.20;;;8.15;;
41946;SDS011;27638;42.184;24.848;2022-10-18T15:16:32;23.70;;;7.90;;
41946;SDS011;27638;42.184;24.848;2022-10-18T15:21:35;13.07;;;6.68;;
41946;SDS011;27638;42.184;24.848;2022-10-18T15:26:51;18.13;;;7.55;;
41946;SDS011;27638;42.184;24.848;2022-10-18T15:29:19;19.58;;;7.53;;
41946;SDS011;27638;42.184;24.848;2022-10-18T15:31:46;21.58;;;7.90;;
41946;SDS011;27638;42.184;24.848;2022-10-18T15:34:17;21.85;;;9.43;;
41946;SDS011;27638;42.184;24.848;2022-10-18T15:36:43;23.67;;;8.13;;
41946;SDS011;27638;42.184;24.848;2022-10-18T15:41:50;27.45;;;10.52;;
41946;SDS011;27638;42.184;24.848;2022-10-18T15:49:46;32.22;;;11.85;;
41946;SDS011;27638;42.184;24.848;2022-10-18T15:58:11;29.88;;;10.52;;
41946;SDS011;27638;42.184;24.848;2022-10-18T16:00:42;29.35;;;11.80;;
41946;SDS011;27638;42.184;24.848;2022-10-18T16:03:08;19.75;;;10.93;;
41946;SDS011;27638;42.184;24.848;2022-10-18T16:05:34;26.20;;;9.68;;
41946;SDS011;27638;42.184;24.848;2022-10-18T16:08:01;23.98;;;9.15;;
41946;SDS011;27638;42.184;24.848;2022-10-18T16:10:26;29.00;;;10.25;;
41946;SDS011;27638;42.184;24.848;2022-10-18T16:12:52;32.70;;;10.60;;
41946;SDS011;27638;42.184;24.848;2022-10-18T16:15:17;35.53;;;10.60;;
41946;SDS011;27638;42.184;24.848;2022-10-18T16:17:43;32.38;;;10.80;;
41946;SDS011;27638;42.184;24.848;2022-10-18T16:20:18;31.95;;;10.50;;
41946;SDS011;27638;42.184;24.848;2022-10-18T16:22:46;26.23;;;10.45;;
41946;SDS011;27638;42.184;24.848;2022-10-18T16:25:12;32.72;;;11.27;;
41946;SDS011;27638;42.184;24.848;2022-10-18T16:27:37;32.97;;;11.00;;
41946;SDS011;27638;42.184;24.848;2022-10-18T16:30:08;38.78;;;11.23;;
41946;SDS011;27638;42.184;24.848;2022-10-18T16:32:39;23.63;;;10.30;;
41946;SDS011;27638;42.184;24.848;2022-10-18T16:35:05;28.88;;;10.63;;
41946;SDS011;27638;42.184;24.848;2022-10-18T16:37:31;37.42;;;10.50;;
41946;SDS011;27638;42.184;24.848;2022-10-18T16:39:56;31.13;;;10.73;;
41946;SDS011;27638;42.184;24.848;2022-10-18T16:42:21;24.02;;;11.38;;
41946;SDS011;27638;42.184;24.848;2022-10-18T16:44:47;41.33;;;11.45;;
41946;SDS011;27638;42.184;24.848;2022-10-18T16:47:13;33.88;;;11.82;;
41946;SDS011;27638;42.184;24.848;2022-10-18T16:49:38;36.65;;;14.00;;
41946;SDS011;27638;42.184;24.848;2022-10-18T16:52:04;48.95;;;16.15;;
41946;SDS011;27638;42.184;24.848;2022-10-18T16:54:29;42.83;;;16.35;;
41946;SDS011;27638;42.184;24.848;2022-10-18T16:56:55;50.67;;;18.73;;
41946;SDS011;27638;42.184;24.848;2022-10-18T16:59:22;51.83;;;19.00;;
41946;SDS011;27638;42.184;24.848;2022-10-18T17:01:50;55.45;;;20.90;;
41946;SDS011;27638;42.184;24.848;2022-10-18T17:04:16;59.92;;;22.08;;
41946;SDS011;27638;42.184;24.848;2022-10-18T17:06:41;86.40;;;31.25;;
41946;SDS011;27638;42.184;24.848;2022-10-18T17:09:07;77.28;;;30.88;;
41946;SDS011;27638;42.184;24.848;2022-10-18T17:11:34;72.70;;;25.23;;
41946;SDS011;27638;42.184;24.848;2022-10-18T17:14:00;72.53;;;23.20;;